This is the latest recevied weather packets stored in our database for station/object N6XE. If no packets are shown the sender has not sent any weather packets the latest 10 day(s).
| Time | Temp. | Humidity | Pressure | Rain* | Wind** | Luminosity | Snow |
|---|---|---|---|---|---|---|---|
| 1778027725 | 18.89° C | 72% | 1018.1 hPa | 0 mm | - | - | - |
| 1778027125 | 18.89° C | 73% | 1018.1 hPa | 0 mm | - | - | - |
| 1778025320 | 18.33° C | 74% | 1018 hPa | 0 mm | - | - | - |
| 1778023515 | 18.33° C | 75% | 1018 hPa | 0 mm | - | - | - |
| 1778021728 | 18.33° C | 76% | 1018 hPa | 0 mm | - | - | - |
| 1778021132 | 18.33° C | 76% | 1018 hPa | 0 mm | - | - | - |
| 1778020518 | 18.33° C | 77% | 1018.1 hPa | 0 mm | - | - | - |
| 1778019923 | 18.33° C | 76% | 1018.3 hPa | 0 mm | - | - | - |
| 1778018732 | 17.22° C | 79% | 1018.5 hPa | 0 mm | - | - | - |
| 1778015717 | 16.67° C | 81% | 1018.5 hPa | 0 mm | - | - | - |
| 1778015121 | 16.11° C | 81% | 1018.6 hPa | 0 mm | - | - | - |
| 1778012125 | 16.11° C | 82% | 1018.7 hPa | 0 mm | - | - | - |
| 1778011523 | 16.67° C | 81% | 1018.8 hPa | 0 mm | - | - | - |
| 1778008515 | 15.56° C | 85% | 1018.9 hPa | 0 mm | - | - | - |
| 1778004939 | 15° C | 85% | 1018.6 hPa | 0 mm | - | - | - |
| 1777999528 | 13.89° C | 89% | 1018.3 hPa | 0 mm | - | - | - |
| 1777998932 | 13.89° C | 89% | 1018.3 hPa | 0 mm | - | - | - |
| 1777994130 | 12.78° C | 94% | 1017.9 hPa | 0 mm | - | - | - |
| 1777993517 | 12.78° C | 94% | 1017.9 hPa | 0 mm | - | - | - |
| 1777991730 | 12.22° C | 97% | 1017.6 hPa | 0 mm | - | - | - |
| 1777988715 | 11.67° C | 99% | 1017.2 hPa | 0.25 mm | - | - | - |
| 1777987524 | 11.67° C | 99% | 1017.1 hPa | 0.25 mm | - | - | - |
| 1777974925 | 11.67° C | 99% | 1017.4 hPa | 0 mm | - | - | - |
| 1777972524 | 11.67° C | 99% | 1018 hPa | 0 mm | - | - | - |
| 1777968318 | 12.22° C | 99% | 1018.2 hPa | 1.27 mm | - | - | - |
* Rain latest hour (hover to see other rain measurements)
** Current wind speed in m/s (hover to see current wind gust speed)